Suffolk, Texas
Current Conditions -  °F | °C
As of 4:35 AM on Thursday 27 Nov 2014 (Local Time) from KOSA Reporting Station
Clear Clear  
Wind Chill: 37°   Ceiling: Unl
Heat Index: 41°   Visibility: 10mi
Dew Point: 28°   Wind: 6mph
Humidity: 60%   Direction: 330°NNW
Pressure: 30.49"   Gusts: NA
Location:  32.7353°N, 94.9492°W
Report Text: KOSA 271035Z AUTO 33005KT 10SM CLR 05/M02 A3049 RMK AO1 T00481023
Loading
Personal Weather Stations






























Interactive Weather Map New forecast layout! Learn more

10-Day Weather Forecast

Advertisements
Track Severe Weather on mobile